Terminal Aerodrome Forecast
Issued by NWS Houston/Galveston, TX

Home | Current Version | Previous Version | Text Only | Print | Product List | Glossary On
Versions: 1 2 3 4 5 6 7 8 9 10 11 12 13 14 15 16 17 18 19 20 21 22 23 24 25 26 27 28 29 30 31 32 33 34 35 36 37 38
000
FTUS44 KHGX 311131
TAFGLS
TAF
KGLS 311131Z 3112/0112 09009KT P6SM BKN028
     FM311500 09012KT P6SM SCT020 BKN040
     FM312100 09014KT P6SM BKN015 OVC030
     FM010000 13012KT 6SM BR VCSH OVC012
      TEMPO 0100/0103 1/2SM FG
     FM010600 12010KT 2SM -RA BR OVC007=

USA.gov is the U.S. government's official web portal to all federal, state and local government web resources and services.